createdAt,value
2022-12-19T00:01:27.629Z,1.20
2022-12-19T00:04:01.903Z,1.40
2022-12-19T00:06:34.767Z,1.00
2022-12-19T00:09:01.454Z,1.15
2022-12-19T00:11:29.278Z,1.17
2022-12-19T00:13:56.258Z,1.00
2022-12-19T00:16:28.606Z,1.10
2022-12-19T00:18:57.333Z,1.20
2022-12-19T00:21:26.791Z,1.20
2022-12-19T00:23:54.060Z,1.35
2022-12-19T00:26:29.316Z,1.20
2022-12-19T00:29:01.465Z,1.45
2022-12-19T00:31:30.168Z,1.33
2022-12-19T00:33:57.344Z,1.25
2022-12-19T00:36:26.045Z,1.35
2022-12-19T00:38:54.728Z,1.27
2022-12-19T00:41:24.004Z,1.13
2022-12-19T00:44:13.944Z,1.42
2022-12-19T00:46:41.396Z,1.30
2022-12-19T00:49:08.291Z,1.45
2022-12-19T00:51:36.716Z,1.00
2022-12-19T00:54:05.435Z,1.63
2022-12-19T00:56:37.313Z,1.20
2022-12-19T00:59:05.245Z,1.15
2022-12-19T01:01:34.646Z,1.52
2022-12-19T01:06:49.852Z,1.20
2022-12-19T01:09:17.086Z,1.42
2022-12-19T01:12:02.354Z,1.10
2022-12-19T01:14:29.104Z,1.30
2022-12-19T01:16:55.756Z,1.20
2022-12-19T01:19:22.452Z,1.30
2022-12-19T01:21:49.121Z,1.35
2022-12-19T01:24:18.437Z,1.38
2022-12-19T01:26:46.126Z,1.40
2022-12-19T01:29:12.813Z,1.20
2022-12-19T01:31:39.557Z,1.20
2022-12-19T01:34:06.745Z,1.23
2022-12-19T01:36:34.677Z,1.40
2022-12-19T01:39:05.730Z,1.38
2022-12-19T01:41:32.372Z,1.15
2022-12-19T01:44:01.485Z,1.42
2022-12-19T01:46:37.301Z,1.27
2022-12-19T01:49:05.351Z,1.40
2022-12-19T01:51:40.986Z,1.30
2022-12-19T01:54:10.534Z,1.40
2022-12-19T01:56:40.940Z,1.02
2022-12-19T01:59:12.147Z,0.90
2022-12-19T02:01:51.002Z,1.20
2022-12-19T02:04:18.852Z,1.33
2022-12-19T02:06:46.083Z,1.15
2022-12-19T02:09:12.903Z,1.38
2022-12-19T02:11:39.771Z,1.30
2022-12-19T02:14:06.982Z,1.10
2022-12-19T02:16:51.878Z,1.70
2022-12-19T02:19:46.663Z,1.42
2022-12-19T02:22:30.008Z,1.20
2022-12-19T02:25:26.001Z,1.40
2022-12-19T02:28:38.000Z,1.10
2022-12-19T02:31:21.174Z,1.25
2022-12-19T02:34:00.676Z,1.40
2022-12-19T02:36:40.289Z,1.05
2022-12-19T02:39:12.139Z,1.48
2022-12-19T02:41:46.194Z,1.40
2022-12-19T02:44:19.275Z,1.40
2022-12-19T02:46:47.707Z,1.00
2022-12-19T02:49:16.584Z,1.10
2022-12-19T02:51:48.567Z,1.33
2022-12-19T02:54:15.775Z,1.58
2022-12-19T02:56:55.205Z,1.40
2022-12-19T02:59:28.829Z,1.50
2022-12-19T03:02:27.044Z,1.50
2022-12-19T03:05:12.035Z,1.52
2022-12-19T03:07:45.909Z,1.58
2022-12-19T03:10:28.288Z,1.60
2022-12-19T03:13:19.417Z,1.48
2022-12-19T03:15:46.600Z,1.67
2022-12-19T03:18:13.677Z,1.55
2022-12-19T03:21:15.987Z,1.35
2022-12-19T03:23:43.060Z,1.40
2022-12-19T03:26:15.580Z,1.25
2022-12-19T03:28:50.606Z,1.65
2022-12-19T03:31:20.186Z,1.42
2022-12-19T03:33:48.323Z,1.48
2022-12-19T03:36:20.648Z,1.50
2022-12-19T03:38:47.813Z,1.55
2022-12-19T03:41:16.504Z,1.38
2022-12-19T03:43:44.919Z,1.85
2022-12-19T03:46:23.286Z,1.40
2022-12-19T03:48:51.881Z,1.70
2022-12-19T03:51:33.976Z,1.60
2022-12-19T03:54:01.629Z,1.35
2022-12-19T03:56:34.434Z,1.48
2022-12-19T03:59:06.896Z,1.42
2022-12-19T04:01:35.066Z,1.67
2022-12-19T04:04:03.218Z,1.83
2022-12-19T04:06:32.137Z,1.45
2022-12-19T04:08:59.703Z,1.58
2022-12-19T04:11:29.815Z,1.50
2022-12-19T04:14:02.872Z,1.67
2022-12-19T04:16:34.968Z,1.80
2022-12-19T04:19:16.660Z,1.40
2022-12-19T04:21:47.407Z,1.63
2022-12-19T04:24:29.243Z,1.80
2022-12-19T04:26:57.783Z,1.73
2022-12-19T04:29:25.679Z,1.75
2022-12-19T04:31:53.068Z,1.70
2022-12-19T04:34:21.251Z,1.40
2022-12-19T04:36:49.000Z,1.50
2022-12-19T04:39:15.824Z,1.48
2022-12-19T04:41:42.542Z,1.60
2022-12-19T04:44:09.256Z,1.60
2022-12-19T04:46:35.950Z,1.80
2022-12-19T04:49:02.797Z,1.80
2022-12-19T04:51:29.542Z,1.55
2022-12-19T04:53:56.247Z,1.92
2022-12-19T04:56:23.255Z,1.90
2022-12-19T04:58:49.991Z,2.00
2022-12-19T05:01:18.520Z,1.60
2022-12-19T05:03:47.848Z,1.58
2022-12-19T05:06:19.211Z,1.90
2022-12-19T05:08:46.357Z,1.75
2022-12-19T05:11:19.435Z,1.98
2022-12-19T05:13:46.900Z,1.92
2022-12-19T05:16:15.036Z,2.20
2022-12-19T05:18:42.148Z,2.22
2022-12-19T05:21:08.992Z,2.10
2022-12-19T05:23:35.872Z,2.05
2022-12-19T05:26:04.010Z,2.17
2022-12-19T05:28:32.065Z,1.85
2022-12-19T05:31:08.505Z,2.70
2022-12-19T05:33:35.804Z,1.83
2022-12-19T05:36:02.900Z,1.95
2022-12-19T05:38:30.050Z,2.05
2022-12-19T05:40:57.039Z,1.80
2022-12-19T05:43:24.079Z,1.70
2022-12-19T05:45:50.786Z,1.67
2022-12-19T05:48:17.533Z,1.80
2022-12-19T05:50:49.323Z,1.63
2022-12-19T05:53:24.613Z,1.80
2022-12-19T05:55:53.063Z,1.83
2022-12-19T05:58:19.783Z,1.90
2022-12-19T06:00:46.473Z,1.83
2022-12-19T06:03:13.392Z,1.73
2022-12-19T06:05:40.222Z,1.70
2022-12-19T06:08:07.133Z,1.77
2022-12-19T06:10:34.273Z,1.80
2022-12-19T06:13:01.287Z,1.38
2022-12-19T06:15:28.620Z,1.85
2022-12-19T06:17:55.476Z,1.70
2022-12-19T06:20:22.176Z,1.63
2022-12-19T06:22:48.882Z,2.10
2022-12-19T06:25:15.670Z,1.88
2022-12-19T06:27:42.365Z,1.67
2022-12-19T06:30:09.499Z,2.17
2022-12-19T06:32:38.131Z,1.70
2022-12-19T06:35:05.802Z,1.63
2022-12-19T06:37:32.591Z,1.73
2022-12-19T06:39:59.268Z,1.50
2022-12-19T06:42:26.472Z,1.83
2022-12-19T06:44:56.020Z,1.73
2022-12-19T06:47:24.103Z,1.80
2022-12-19T06:49:50.912Z,2.05
2022-12-19T06:52:17.996Z,1.90
2022-12-19T06:54:44.709Z,1.65
2022-12-19T06:57:11.561Z,1.60
2022-12-19T06:59:38.251Z,1.85
2022-12-19T07:02:25.013Z,1.90
2022-12-19T07:04:59.659Z,2.08
2022-12-19T07:07:26.347Z,1.52
2022-12-19T07:09:53.116Z,1.90
2022-12-19T07:12:19.834Z,1.77
2022-12-19T07:14:51.707Z,2.03
2022-12-19T07:17:20.820Z,1.88
2022-12-19T07:19:47.699Z,2.25
2022-12-19T07:22:14.375Z,2.00
2022-12-19T07:24:41.088Z,2.08
2022-12-19T07:27:08.038Z,2.13
2022-12-19T07:29:34.815Z,2.10
2022-12-19T07:32:01.803Z,2.40
2022-12-19T07:34:28.537Z,2.20
2022-12-19T07:36:55.566Z,2.25
2022-12-19T07:39:22.273Z,2.30
2022-12-19T07:41:49.183Z,2.10
2022-12-19T07:44:16.504Z,2.60
2022-12-19T07:46:43.502Z,2.45
2022-12-19T07:49:10.203Z,2.42
2022-12-19T07:51:36.940Z,2.38
2022-12-19T07:54:03.803Z,2.20
2022-12-19T07:56:30.488Z,2.65
2022-12-19T07:58:58.262Z,2.50
2022-12-19T08:01:25.213Z,2.70
2022-12-19T08:03:55.215Z,2.58
2022-12-19T08:06:23.354Z,2.67
2022-12-19T08:08:50.291Z,2.55
2022-12-19T08:11:19.617Z,2.75
2022-12-19T08:13:47.846Z,2.55
2022-12-19T08:16:15.045Z,2.67
2022-12-19T08:18:41.795Z,2.70
2022-12-19T08:21:09.235Z,2.78
2022-12-19T08:23:35.969Z,2.90
2022-12-19T08:26:07.988Z,2.42
2022-12-19T08:28:36.915Z,2.35
2022-12-19T08:31:12.078Z,2.38
2022-12-19T08:33:39.282Z,2.33
2022-12-19T08:36:11.563Z,2.35
2022-12-19T08:38:39.656Z,2.30
2022-12-19T08:41:06.834Z,2.25
2022-12-19T08:43:34.071Z,2.50
2022-12-19T08:46:00.848Z,2.60
2022-12-19T08:48:27.724Z,2.05
2022-12-19T08:50:59.227Z,2.28
2022-12-19T08:53:28.083Z,2.53
2022-12-19T08:55:56.319Z,2.00
2022-12-19T08:58:27.930Z,2.10
2022-12-19T09:01:01.726Z,2.20
2022-12-19T09:03:43.059Z,2.10
2022-12-19T09:06:19.747Z,2.10
2022-12-19T09:08:46.942Z,2.00
2022-12-19T09:11:19.386Z,2.00
2022-12-19T09:13:47.436Z,1.63
2022-12-19T09:16:19.960Z,2.08
2022-12-19T09:18:49.028Z,1.60
2022-12-19T09:21:16.969Z,1.95
2022-12-19T09:23:47.241Z,1.95
2022-12-19T09:26:15.428Z,2.00
2022-12-19T09:28:42.283Z,1.58
2022-12-19T09:31:13.811Z,1.70
2022-12-19T09:33:43.565Z,1.30
2022-12-19T09:36:20.176Z,1.50
2022-12-19T09:38:47.535Z,1.50
2022-12-19T09:41:33.102Z,1.50
2022-12-19T09:44:11.805Z,1.40
2022-12-19T09:46:50.882Z,1.55
2022-12-19T09:49:34.413Z,1.90
2022-12-19T09:52:25.634Z,1.42
2022-12-19T09:55:19.262Z,1.50
2022-12-19T09:57:54.749Z,1.67
2022-12-19T10:00:22.579Z,1.73
2022-12-19T10:03:09.247Z,1.45
2022-12-19T10:06:27.739Z,1.60
2022-12-19T10:09:18.919Z,1.30
2022-12-19T10:12:43.617Z,1.30
2022-12-19T10:14:55.472Z,1.27
2022-12-19T10:18:00.972Z,1.20
2022-12-19T10:20:41.873Z,1.48
2022-12-19T10:23:14.335Z,1.17
2022-12-19T10:25:57.404Z,1.15
2022-12-19T10:29:07.246Z,1.20
2022-12-19T10:31:53.729Z,1.63
2022-12-19T10:34:24.694Z,2.15
2022-12-19T10:40:04.501Z,1.63
2022-12-19T10:42:56.120Z,1.67
2022-12-19T10:45:31.061Z,1.52
2022-12-19T10:47:58.446Z,1.52
2022-12-19T10:50:29.054Z,1.58
2022-12-19T10:53:10.681Z,1.65
2022-12-19T10:55:44.720Z,1.60
2022-12-19T10:58:28.007Z,1.83
2022-12-19T11:00:57.533Z,1.63
2022-12-19T11:03:24.438Z,1.58
2022-12-19T11:05:58.002Z,1.30
2022-12-19T11:08:33.869Z,1.60
2022-12-19T11:13:08.483Z,1.40
2022-12-19T11:18:40.776Z,1.40
2022-12-19T11:23:16.897Z,1.85
2022-12-19T11:29:30.356Z,1.45
2022-12-19T11:29:55.809Z,1.40
2022-12-19T11:30:25.886Z,1.60
2022-12-19T11:30:41.738Z,1.58
2022-12-19T11:34:17.583Z,1.55
2022-12-19T11:37:02.517Z,1.65
2022-12-19T11:39:46.134Z,1.45
2022-12-19T11:42:21.941Z,1.30
2022-12-19T11:44:53.660Z,1.48
2022-12-19T11:47:42.123Z,1.20
2022-12-19T11:50:16.978Z,1.42
2022-12-19T11:53:16.541Z,1.55
2022-12-19T11:55:51.628Z,1.45
2022-12-19T11:58:18.357Z,1.58
2022-12-19T12:00:58.920Z,1.50
2022-12-19T12:03:59.293Z,1.48
2022-12-19T12:06:34.142Z,1.30
2022-12-19T12:14:30.412Z,1.70
2022-12-19T12:17:51.882Z,1.20
2022-12-19T12:26:57.709Z,1.23
2022-12-19T12:28:40.228Z,1.20
2022-12-19T12:31:21.282Z,1.40
2022-12-19T12:31:22.106Z,1.40
2022-12-19T12:31:44.390Z,1.58
2022-12-19T12:35:28.677Z,1.50
2022-12-19T12:40:41.223Z,1.42
2022-12-19T12:43:50.589Z,1.45
2022-12-19T12:46:24.099Z,1.60
2022-12-19T12:48:54.164Z,1.67
2022-12-19T12:51:21.752Z,1.63
2022-12-19T12:53:49.240Z,1.98
2022-12-19T12:56:17.747Z,1.60
2022-12-19T12:59:07.417Z,1.27
2022-12-19T13:01:40.674Z,1.42
2022-12-19T13:04:13.772Z,1.80
2022-12-19T13:07:02.464Z,1.63
2022-12-19T13:09:36.492Z,1.80
2022-12-19T13:12:35.670Z,1.63
2022-12-19T13:15:27.791Z,1.70
2022-12-19T13:17:54.444Z,1.90
2022-12-19T13:20:24.001Z,1.70
2022-12-19T13:23:04.690Z,1.38
2022-12-19T13:25:34.550Z,1.55
2022-12-19T13:28:01.251Z,1.50
2022-12-19T13:31:11.673Z,1.60
2022-12-19T13:33:19.613Z,1.20
2022-12-19T13:39:43.387Z,1.50
2022-12-19T13:40:02.345Z,1.48
2022-12-19T13:42:00.277Z,1.70
2022-12-19T13:44:27.170Z,1.80
2022-12-19T13:46:55.388Z,1.98
2022-12-19T13:49:39.945Z,1.55
2022-12-19T13:52:07.301Z,1.80
2022-12-19T13:54:44.903Z,1.63
2022-12-19T13:57:41.296Z,1.70
2022-12-19T14:00:17.736Z,1.70
2022-12-19T14:02:51.241Z,1.65
2022-12-19T14:05:36.097Z,1.42
2022-12-19T14:08:21.414Z,1.23
2022-12-19T14:11:40.635Z,1.30
2022-12-19T14:14:10.096Z,1.30
2022-12-19T14:16:45.174Z,1.60
2022-12-19T14:19:21.445Z,1.70
2022-12-19T14:22:07.898Z,1.77
2022-12-19T14:24:35.205Z,2.00
2022-12-19T14:28:20.123Z,2.03
2022-12-19T14:30:26.205Z,2.13
2022-12-19T14:33:46.784Z,2.50
2022-12-19T14:36:12.225Z,1.85
2022-12-19T14:39:25.135Z,1.73
2022-12-19T14:41:41.226Z,2.33
2022-12-19T14:51:52.084Z,1.92
2022-12-19T14:54:07.010Z,1.98
2022-12-19T14:54:13.499Z,1.95
2022-12-19T14:54:41.627Z,1.85
2022-12-19T14:56:40.267Z,1.90
2022-12-19T14:59:05.999Z,2.28
2022-12-19T15:01:34.225Z,2.10
2022-12-19T15:04:51.294Z,1.80
2022-12-19T15:07:08.951Z,1.83
2022-12-19T15:11:04.348Z,2.00
2022-12-19T15:14:52.635Z,1.70
2022-12-19T15:16:04.911Z,1.73
2022-12-19T15:18:42.518Z,1.50
2022-12-19T15:21:14.200Z,1.35
2022-12-19T15:23:42.041Z,1.58
2022-12-19T15:26:20.734Z,1.33
2022-12-19T15:28:50.165Z,1.40
2022-12-19T15:31:34.746Z,1.50
2022-12-19T15:34:48.244Z,1.50
2022-12-19T15:37:13.023Z,1.42
2022-12-19T15:39:40.351Z,1.35
2022-12-19T15:42:15.776Z,1.20
2022-12-19T15:44:44.478Z,1.50
2022-12-19T15:47:19.580Z,1.40
2022-12-19T15:49:47.218Z,1.17
2022-12-19T15:52:18.871Z,1.00
2022-12-19T15:54:48.751Z,1.25
2022-12-19T15:57:42.039Z,1.25
2022-12-19T16:00:23.302Z,1.20
2022-12-19T16:05:38.494Z,1.23
2022-12-19T16:08:13.030Z,1.20
2022-12-19T16:10:40.608Z,1.30
2022-12-19T16:13:09.853Z,1.30
2022-12-19T16:15:39.444Z,1.80
2022-12-19T16:18:06.906Z,1.33
2022-12-19T16:20:39.435Z,1.30
2022-12-19T16:23:07.103Z,1.08
2022-12-19T16:25:40.736Z,1.10
2022-12-19T16:28:14.712Z,1.27
2022-12-19T16:30:43.423Z,1.00
2022-12-19T16:33:21.156Z,1.00
2022-12-19T16:36:04.223Z,1.10
2022-12-19T16:38:31.891Z,1.17
2022-12-19T16:40:58.600Z,1.10
2022-12-19T16:43:32.557Z,1.00
2022-12-19T16:46:01.358Z,0.73
2022-12-19T16:48:30.199Z,0.98
2022-12-19T16:50:58.229Z,0.90
2022-12-19T16:53:25.259Z,1.00
2022-12-19T16:55:52.511Z,1.00
2022-12-19T16:58:21.579Z,1.20
2022-12-19T17:00:49.178Z,1.25
2022-12-19T17:03:27.694Z,0.80
2022-12-19T17:05:54.858Z,0.98
2022-12-19T17:08:21.757Z,1.02
2022-12-19T17:10:48.808Z,0.90
2022-12-19T17:13:17.557Z,1.10
2022-12-19T17:15:44.501Z,0.95
2022-12-19T17:18:20.624Z,1.10
2022-12-19T17:20:47.777Z,0.63
2022-12-19T17:23:20.195Z,0.95
2022-12-19T17:25:46.933Z,1.30
2022-12-19T17:28:14.053Z,1.02
2022-12-19T17:30:42.837Z,1.40
2022-12-19T17:33:15.337Z,1.20
2022-12-19T17:35:42.761Z,1.50
2022-12-19T17:38:12.931Z,1.10
2022-12-19T17:40:39.907Z,1.15
2022-12-19T17:43:06.642Z,1.00
2022-12-19T17:45:34.039Z,0.80
2022-12-19T17:48:03.702Z,1.20
2022-12-19T17:50:38.262Z,1.05
2022-12-19T17:53:05.692Z,0.80
2022-12-19T17:55:32.571Z,1.00
2022-12-19T17:57:59.882Z,1.02
2022-12-19T18:00:30.745Z,1.40
2022-12-19T18:03:05.008Z,2.08
2022-12-19T18:05:36.261Z,2.20
2022-12-19T18:08:03.855Z,1.65
2022-12-19T18:10:31.536Z,1.17
2022-12-19T18:12:58.559Z,1.23
2022-12-19T18:15:25.660Z,0.90
2022-12-19T18:17:53.862Z,1.13
2022-12-19T18:20:31.580Z,1.00
2022-12-19T18:22:59.887Z,0.82
2022-12-19T18:25:31.587Z,0.88
2022-12-19T18:27:58.567Z,0.80
2022-12-19T18:30:25.765Z,1.00
2022-12-19T18:33:00.633Z,0.98
2022-12-19T18:38:00.515Z,1.10
2022-12-19T18:40:31.803Z,1.00
2022-12-19T18:45:39.919Z,0.95
2022-12-19T18:48:08.700Z,0.82
2022-12-19T18:50:35.515Z,1.05
2022-12-19T18:53:02.274Z,1.60
2022-12-19T18:55:32.372Z,1.30
2022-12-19T18:57:59.182Z,1.40
2022-12-19T19:00:27.389Z,1.40
2022-12-19T19:03:00.307Z,1.30
2022-12-19T19:05:30.174Z,1.30
2022-12-19T19:07:58.044Z,1.20
2022-12-19T19:10:27.579Z,0.90
2022-12-19T19:12:55.924Z,1.15
2022-12-19T19:15:31.349Z,0.90
2022-12-19T19:18:04.250Z,1.85
2022-12-19T19:20:36.640Z,1.40
2022-12-19T19:23:09.747Z,1.60
2022-12-19T19:25:37.173Z,1.23
2022-12-19T19:28:05.843Z,1.30
2022-12-19T19:30:35.093Z,1.40
2022-12-19T19:33:10.355Z,1.10
2022-12-19T19:35:37.230Z,2.50
2022-12-19T19:38:06.744Z,1.88
2022-12-19T19:40:34.423Z,3.80
2022-12-19T19:43:01.160Z,1.50
2022-12-19T19:45:27.868Z,1.30
2022-12-19T19:47:55.455Z,1.20
2022-12-19T19:50:22.711Z,1.10
2022-12-19T19:52:49.387Z,0.80
2022-12-19T19:55:16.129Z,0.88
2022-12-19T19:57:42.896Z,1.45
2022-12-19T20:00:10.219Z,1.40
2022-12-19T20:02:37.227Z,1.15
2022-12-19T20:05:04.256Z,1.17
2022-12-19T20:07:30.969Z,1.20
2022-12-19T20:09:57.695Z,1.20
2022-12-19T20:12:24.701Z,1.60
2022-12-19T20:14:51.424Z,1.92
2022-12-19T20:17:18.218Z,1.90
2022-12-19T20:19:44.970Z,1.80
2022-12-19T20:22:11.675Z,1.92
2022-12-19T20:24:38.400Z,1.50
2022-12-19T20:27:05.087Z,1.60
2022-12-19T20:29:31.938Z,1.20
2022-12-19T20:31:58.757Z,1.35
2022-12-19T20:34:25.958Z,1.52
2022-12-19T20:36:52.761Z,1.40
2022-12-19T20:39:22.095Z,1.00
2022-12-19T20:41:52.721Z,1.27
2022-12-19T20:44:24.192Z,1.35
2022-12-19T20:46:52.519Z,1.10
2022-12-19T20:49:19.701Z,1.30
2022-12-19T20:51:47.704Z,2.38
2022-12-19T20:54:15.731Z,1.95
2022-12-19T20:56:43.072Z,2.20
2022-12-19T20:59:10.385Z,2.13
2022-12-19T21:01:37.713Z,1.80
2022-12-19T21:04:05.221Z,2.08
2022-12-19T21:06:32.101Z,1.40
2022-12-19T21:08:58.953Z,1.20
2022-12-19T21:11:26.524Z,1.10
2022-12-19T21:13:53.984Z,0.90
2022-12-19T21:16:22.221Z,0.80
2022-12-19T21:18:51.028Z,1.10
2022-12-19T21:21:21.878Z,0.90
2022-12-19T21:23:49.146Z,1.13
2022-12-19T21:26:16.095Z,1.10
2022-12-19T21:28:42.992Z,0.93
2022-12-19T21:31:19.722Z,1.13
2022-12-19T21:33:46.553Z,1.30
2022-12-19T21:36:18.915Z,1.30
2022-12-19T21:38:47.223Z,1.42
2022-12-19T21:41:18.796Z,1.70
2022-12-19T21:43:47.548Z,1.98
2022-12-19T21:46:16.147Z,1.20
2022-12-19T21:48:50.581Z,2.28
2022-12-19T21:51:20.127Z,1.88
2022-12-19T21:53:47.374Z,2.53
2022-12-19T21:56:26.219Z,3.00
2022-12-19T21:58:55.225Z,2.53
2022-12-19T22:01:22.169Z,1.75
2022-12-19T22:03:49.410Z,1.48
2022-12-19T22:06:27.945Z,1.48
2022-12-19T22:08:55.352Z,1.00
2022-12-19T22:11:22.513Z,0.90
2022-12-19T22:13:49.909Z,0.90
2022-12-19T22:16:17.495Z,0.80
2022-12-19T22:18:44.652Z,0.80
2022-12-19T22:21:13.273Z,1.25
2022-12-19T22:23:40.160Z,0.98
2022-12-19T22:26:12.921Z,1.08
2022-12-19T22:28:43.386Z,1.40
2022-12-19T22:31:21.128Z,0.70
2022-12-19T22:33:48.933Z,1.45
2022-12-19T22:36:19.697Z,1.23
2022-12-19T22:38:49.722Z,0.82
2022-12-19T22:41:18.114Z,1.10
2022-12-19T22:43:45.390Z,0.82
2022-12-19T22:46:27.528Z,1.08
2022-12-19T22:48:59.697Z,1.10
2022-12-19T22:51:28.310Z,0.95
2022-12-19T22:53:55.975Z,1.10
2022-12-19T22:56:25.204Z,0.95
2022-12-19T22:58:53.885Z,0.80
2022-12-19T23:01:24.835Z,0.85
2022-12-19T23:03:53.768Z,0.68
2022-12-19T23:06:21.135Z,0.90
2022-12-19T23:08:48.241Z,1.27
2022-12-19T23:11:21.492Z,0.80
2022-12-19T23:13:49.295Z,0.63
2022-12-19T23:16:16.958Z,1.05
2022-12-19T23:18:43.909Z,1.15
2022-12-19T23:21:15.854Z,1.00
2022-12-19T23:23:43.604Z,1.15
2022-12-19T23:26:15.766Z,1.17
2022-12-19T23:28:44.020Z,1.08
2022-12-19T23:31:13.663Z,1.30
2022-12-19T23:33:41.276Z,0.90
2022-12-19T23:36:08.473Z,1.10
2022-12-19T23:38:35.423Z,1.10
2022-12-19T23:41:07.361Z,0.88
2022-12-19T23:43:36.091Z,0.90
2022-12-19T23:46:14.230Z,0.88
2022-12-19T23:48:41.241Z,1.30
2022-12-19T23:51:13.503Z,1.08
2022-12-19T23:53:40.344Z,1.10
2022-12-19T23:56:12.167Z,1.33
2022-12-19T23:58:38.893Z,1.67
